createdAt,value
2019-02-14T00:00:50.358Z,102261.44
2019-02-14T00:14:13.997Z,102272.91
2019-02-14T00:16:42.977Z,102285.27
2019-02-14T00:19:11.931Z,102285.73
2019-02-14T00:21:40.876Z,102291.59
2019-02-14T00:24:09.819Z,102288.51
2019-02-14T00:26:38.794Z,102280.50
2019-02-14T00:29:07.783Z,102280.44
2019-02-14T00:31:36.738Z,102274.09
2019-02-14T00:34:05.737Z,102281.86
2019-02-14T00:36:34.666Z,102276.14
2019-02-14T00:39:04.816Z,102201.08
2019-02-14T00:41:33.765Z,102258.34
2019-02-14T00:44:02.730Z,102269.09
2019-02-14T00:46:31.676Z,102269.52
2019-02-14T00:49:00.542Z,102268.93
2019-02-14T00:51:29.510Z,102269.75
2019-02-14T00:53:58.499Z,102271.31
2019-02-14T00:56:27.351Z,102264.46
2019-02-14T00:58:56.237Z,102262.52
2019-02-14T01:01:25.180Z,102263.34
2019-02-14T01:03:54.174Z,102266.28
2019-02-14T01:06:23.106Z,102261.05
2019-02-14T01:08:52.075Z,102262.94
2019-02-14T01:11:21.024Z,102266.48
2019-02-14T01:13:49.961Z,102258.58
2019-02-14T01:16:18.889Z,102256.92
2019-02-14T01:18:47.849Z,102264.53
2019-02-14T01:21:16.795Z,102265.05
2019-02-14T01:23:45.731Z,102254.44
2019-02-14T01:26:14.710Z,102247.86
2019-02-14T01:28:43.675Z,102250.57
2019-02-14T01:31:12.620Z,102247.86
2019-02-14T01:33:41.584Z,102249.22
2019-02-14T01:36:10.472Z,102249.97
2019-02-14T01:38:39.422Z,102253.74
2019-02-14T01:41:08.372Z,102259.39
2019-02-14T01:43:37.326Z,102264.19
2019-02-14T01:46:06.266Z,102256.28
2019-02-14T01:48:35.191Z,102257.56
2019-02-14T01:51:04.126Z,102258.09
2019-02-14T01:53:33.080Z,102254.45
2019-02-14T01:56:01.947Z,102260.63
2019-02-14T01:58:31.011Z,102269.52
2019-02-14T02:00:59.949Z,102262.12
2019-02-14T02:03:28.889Z,102263.63
2019-02-14T02:05:57.847Z,102257.58
2019-02-14T02:08:26.819Z,102256.98
2019-02-14T02:10:55.969Z,102258.78
2019-02-14T02:13:24.927Z,102253.79
2019-02-14T02:15:53.855Z,102252.14
2019-02-14T02:18:23.053Z,102250.19
2019-02-14T02:20:51.981Z,102246.64
2019-02-14T02:23:20.899Z,102241.13
2019-02-14T02:25:49.861Z,102237.81
2019-02-14T02:28:18.780Z,102241.77
2019-02-14T02:30:47.759Z,102246.59
2019-02-14T02:33:16.697Z,102247.64
2019-02-14T02:35:45.647Z,102257.05
2019-02-14T02:38:14.567Z,102254.01
2019-02-14T02:40:43.511Z,102248.59
2019-02-14T02:43:12.448Z,102246.64
2019-02-14T02:45:41.411Z,102259.36
2019-02-14T02:48:10.348Z,102261.77
2019-02-14T02:50:39.280Z,102263.34
2019-02-14T02:53:08.258Z,102262.18
2019-02-14T02:55:37.210Z,102263.34
2019-02-14T02:58:06.147Z,102262.18
2019-02-14T03:00:35.083Z,102265.94
2019-02-14T03:03:04.048Z,102272.19
2019-02-14T03:05:32.994Z,102270.23
2019-02-14T03:08:01.948Z,102268.34
2019-02-14T03:10:30.867Z,102264.81
2019-02-14T03:12:59.835Z,102272.64
2019-02-14T03:15:28.711Z,102264.73
2019-02-14T03:17:57.641Z,102267.75
2019-02-14T03:20:26.569Z,102268.17
2019-02-14T03:22:55.526Z,102268.99
2019-02-14T03:25:24.486Z,102266.81
2019-02-14T03:27:53.447Z,102273.81
2019-02-14T03:30:22.460Z,102277.87
2019-02-14T03:32:51.397Z,102278.92
2019-02-14T03:35:20.363Z,102278.63
2019-02-14T03:37:49.317Z,102272.05
2019-02-14T03:40:18.287Z,102274.25
2019-02-14T03:42:47.306Z,102273.39
2019-02-14T03:45:16.878Z,102275.77
2019-02-14T03:47:45.828Z,102282.46
2019-02-14T03:50:14.843Z,102281.94
2019-02-14T03:52:43.746Z,102274.87
2019-02-14T03:55:12.710Z,102277.27
2019-02-14T03:57:41.640Z,102282.39
2019-02-14T04:00:12.859Z,102286.11
2019-02-14T04:02:41.782Z,102280.09
2019-02-14T04:05:10.765Z,102273.85
2019-02-14T04:07:39.784Z,102265.42
2019-02-14T04:10:10.173Z,102273.77
2019-02-14T04:12:39.154Z,102275.66
2019-02-14T04:15:10.420Z,102278.25
2019-02-14T04:17:39.494Z,102278.47
2019-02-14T04:20:08.823Z,102274.63
2019-02-14T04:22:37.775Z,102278.28
2019-02-14T04:25:06.757Z,102275.27
2019-02-14T04:27:35.731Z,102281.44
2019-02-14T04:30:04.907Z,102282.98
2019-02-14T04:32:33.895Z,102288.92
2019-02-14T04:35:02.868Z,102288.61
2019-02-14T04:37:31.847Z,102290.49
2019-02-14T04:40:00.791Z,102287.56
2019-02-14T04:42:29.760Z,102298.09
2019-02-14T04:44:58.705Z,102287.56
2019-02-14T04:47:27.652Z,102284.86
2019-02-14T04:49:56.638Z,102290.58
2019-02-14T04:52:25.506Z,102288.20
2019-02-14T04:54:54.444Z,102286.63
2019-02-14T04:57:23.333Z,102280.38
2019-02-14T04:59:52.302Z,102283.39
2019-02-14T05:02:21.250Z,102279.94
2019-02-14T05:04:50.208Z,102278.89
2019-02-14T05:07:19.152Z,102281.93
2019-02-14T05:09:48.108Z,102280.58
2019-02-14T05:12:17.072Z,102279.52
2019-02-14T05:14:46.014Z,102291.18
2019-02-14T05:17:14.982Z,102287.42
2019-02-14T05:19:43.942Z,102290.95
2019-02-14T05:22:12.919Z,102298.03
2019-02-14T05:24:41.851Z,102294.80
2019-02-14T05:27:10.844Z,102303.44
2019-02-14T05:29:39.776Z,102301.78
2019-02-14T05:32:08.736Z,102307.20
2019-02-14T05:34:37.685Z,102312.01
2019-02-14T05:37:06.649Z,102303.58
2019-02-14T05:39:35.537Z,102317.61
2019-02-14T05:42:04.523Z,102316.78
2019-02-14T05:44:33.467Z,102310.77
2019-02-14T05:47:02.495Z,102303.70
2019-02-14T05:49:31.422Z,102305.80
2019-02-14T05:52:00.381Z,102310.05
2019-02-14T05:54:32.037Z,102312.97
2019-02-14T05:57:01.821Z,102319.44
2019-02-14T05:59:30.863Z,102314.55
2019-02-14T06:01:59.856Z,102315.08
2019-02-14T06:04:29.981Z,102326.65
2019-02-14T06:07:01.137Z,102322.25
2019-02-14T06:09:31.202Z,102315.19
2019-02-14T06:12:00.143Z,102314.36
2019-02-14T06:14:29.096Z,102313.75
2019-02-14T06:16:58.048Z,102331.03
2019-02-14T06:19:27.005Z,102335.28
2019-02-14T06:21:55.956Z,102331.44
2019-02-14T06:24:24.906Z,102323.84
2019-02-14T06:26:53.878Z,102324.07
2019-02-14T06:29:22.840Z,102323.24
2019-02-14T06:31:51.865Z,102328.13
2019-02-14T06:34:20.821Z,102331.05
2019-02-14T06:36:49.768Z,102339.36
2019-02-14T06:39:18.693Z,102343.53
2019-02-14T06:41:47.655Z,102345.60
2019-02-14T06:44:16.629Z,102340.94
2019-02-14T06:46:45.576Z,102343.94
2019-02-14T06:49:14.550Z,102359.47
2019-02-14T06:51:43.507Z,102359.25
2019-02-14T06:54:12.479Z,102365.87
2019-02-14T06:56:41.516Z,102356.00
2019-02-14T06:59:10.521Z,102352.97
2019-02-14T07:01:39.463Z,102346.06
2019-02-14T07:04:08.396Z,102356.03
2019-02-14T07:06:37.372Z,102349.16
2019-02-14T07:09:06.785Z,102349.16
2019-02-14T07:11:35.762Z,102350.09
2019-02-14T07:14:04.726Z,102357.83
2019-02-14T07:16:33.694Z,102362.72
2019-02-14T07:19:02.660Z,102369.05
2019-02-14T07:21:31.612Z,102377.06
2019-02-14T07:24:00.578Z,102372.37
2019-02-14T07:26:29.542Z,102375.16
2019-02-14T07:28:58.498Z,102387.13
2019-02-14T07:31:27.465Z,102394.75
2019-02-14T07:33:56.449Z,102390.77
2019-02-14T07:36:25.423Z,102388.97
2019-02-14T07:38:54.381Z,102386.11
2019-02-14T07:41:23.317Z,102392.66
2019-02-14T07:43:52.254Z,102392.44
2019-02-14T07:46:22.928Z,102391.61
2019-02-14T07:48:52.083Z,102380.77
2019-02-14T07:51:21.069Z,102381.80
2019-02-14T08:04:32.301Z,102395.63
2019-02-14T08:07:01.261Z,102386.17
2019-02-14T08:09:33.231Z,102382.23
2019-02-14T08:12:02.171Z,102392.14
2019-02-14T08:14:31.130Z,102391.14
2019-02-14T08:17:00.072Z,102387.47
2019-02-14T08:19:29.023Z,102388.34
2019-02-14T08:21:57.978Z,102396.70
2019-02-14T08:24:26.920Z,102400.34
2019-02-14T08:26:55.881Z,102396.94
2019-02-14T08:29:24.850Z,102400.99
2019-02-14T08:31:53.789Z,102401.95
2019-02-14T08:34:22.774Z,102415.89
2019-02-14T08:36:51.758Z,102415.16
2019-02-14T08:39:20.755Z,102409.66
2019-02-14T08:41:49.682Z,102404.25
2019-02-14T08:44:18.682Z,102396.97
2019-02-14T08:46:47.696Z,102385.72
2019-02-14T08:49:16.642Z,102386.37
2019-02-14T08:51:45.626Z,102391.03
2019-02-14T08:54:14.593Z,102385.41
2019-02-14T08:56:43.577Z,102389.47
2019-02-14T08:59:12.483Z,102390.81
2019-02-14T09:01:41.431Z,102390.52
2019-02-14T09:04:10.468Z,102386.77
2019-02-14T09:06:39.404Z,102389.98
2019-02-14T09:09:08.387Z,102389.16
2019-02-14T09:11:37.395Z,102390.52
2019-02-14T09:14:06.421Z,102397.27
2019-02-14T09:16:35.313Z,102404.47
2019-02-14T09:19:04.301Z,102399.98
2019-02-14T09:21:33.277Z,102395.09
2019-02-14T09:24:02.232Z,102394.66
2019-02-14T09:26:31.266Z,102399.45
2019-02-14T09:29:00.207Z,102398.02
2019-02-14T09:31:29.226Z,102404.53
2019-02-14T09:33:58.168Z,102420.97
2019-02-14T09:36:27.193Z,102421.36
2019-02-14T09:38:56.144Z,102418.97
2019-02-14T09:41:25.128Z,102418.35
2019-02-14T09:43:54.121Z,102424.53
2019-02-14T09:46:23.129Z,102422.05
2019-02-14T09:48:52.166Z,102428.68
2019-02-14T09:51:21.181Z,102419.43
2019-02-14T09:53:50.130Z,102414.75
2019-02-14T09:56:19.097Z,102410.48
2019-02-14T09:58:48.087Z,102416.81
2019-02-14T10:01:17.061Z,102424.83
2019-02-14T10:03:47.035Z,102419.73
2019-02-14T10:06:16.149Z,102418.49
2019-02-14T10:08:45.104Z,102405.80
2019-02-14T10:11:14.161Z,102404.53
2019-02-14T10:13:43.288Z,102401.51
2019-02-14T10:16:12.243Z,102397.42
2019-02-14T10:18:41.190Z,102399.79
2019-02-14T10:21:10.148Z,102392.25
2019-02-14T10:23:39.132Z,102402.02
2019-02-14T10:26:08.106Z,102401.09
2019-02-14T10:28:37.043Z,102405.17
2019-02-14T10:31:06.020Z,102409.89
2019-02-14T10:33:35.004Z,102410.64
2019-02-14T10:36:04.595Z,102404.31
2019-02-14T10:38:33.679Z,102403.55
2019-02-14T10:41:02.725Z,102394.19
2019-02-14T10:43:31.664Z,102385.28
2019-02-14T10:46:00.640Z,102399.61
2019-02-14T10:48:29.584Z,102402.80
2019-02-14T10:50:58.573Z,102395.79
2019-02-14T10:53:27.514Z,102400.26
2019-02-14T10:55:56.497Z,102396.09
2019-02-14T10:58:25.465Z,102395.13
2019-02-14T11:00:54.469Z,102389.18
2019-02-14T11:03:23.419Z,102391.59
2019-02-14T11:05:52.341Z,102389.47
2019-02-14T11:08:21.307Z,102394.79
2019-02-14T11:10:50.254Z,102393.06
2019-02-14T11:13:19.231Z,102389.72
2019-02-14T11:15:48.190Z,102389.05
2019-02-14T11:18:17.152Z,102396.48
2019-02-14T11:20:46.115Z,102388.59
2019-02-14T11:23:15.092Z,102385.29
2019-02-14T11:25:44.030Z,102376.30
2019-02-14T11:28:14.811Z,102378.08
2019-02-14T11:30:43.779Z,102375.30
2019-02-14T11:33:12.628Z,102375.82
2019-02-14T11:35:41.555Z,102376.19
2019-02-14T11:38:10.519Z,102380.09
2019-02-14T11:40:39.498Z,102372.97
2019-02-14T11:43:08.486Z,102374.88
2019-02-14T11:45:37.452Z,102368.08
2019-02-14T11:48:06.433Z,102367.42
2019-02-14T11:50:35.382Z,102362.40
2019-02-14T11:53:13.670Z,102359.74
2019-02-14T11:55:35.028Z,102351.10
2019-02-14T11:58:04.000Z,102355.39
2019-02-14T12:00:32.939Z,102355.14
2019-02-14T12:03:02.054Z,102355.49
2019-02-14T12:05:31.028Z,102352.30
2019-02-14T12:07:59.987Z,102337.44
2019-02-14T12:10:28.937Z,102328.91
2019-02-14T12:12:57.983Z,102328.00
2019-02-14T12:15:26.865Z,102326.08
2019-02-14T12:17:56.343Z,102329.17
2019-02-14T12:20:25.215Z,102323.45
2019-02-14T12:22:54.169Z,102321.34
2019-02-14T12:25:23.372Z,102318.29
2019-02-14T12:27:52.343Z,102308.05
2019-02-14T12:30:21.911Z,102305.45
2019-02-14T12:32:50.865Z,102307.89
2019-02-14T12:35:19.837Z,102305.05
2019-02-14T12:37:48.865Z,102296.27
2019-02-14T12:40:17.851Z,102292.27
2019-02-14T12:42:46.870Z,102294.23
2019-02-14T12:45:21.712Z,102282.86
2019-02-14T12:47:47.943Z,102288.91
2019-02-14T12:50:16.916Z,102289.21
2019-02-14T12:52:45.889Z,102282.96
2019-02-14T12:55:14.844Z,102272.84
2019-02-14T12:57:43.820Z,102278.20
2019-02-14T13:00:15.902Z,102276.54
2019-02-14T13:02:44.839Z,102271.64
2019-02-14T13:05:13.826Z,102264.23
2019-02-14T13:07:42.771Z,102266.35
2019-02-14T13:10:12.190Z,102265.75
2019-02-14T13:12:41.153Z,102261.06
2019-02-14T13:15:12.693Z,102252.62
2019-02-14T13:17:41.684Z,102254.74
2019-02-14T13:20:10.768Z,102252.26
2019-02-14T13:22:39.767Z,102247.37
2019-02-14T13:25:09.681Z,102244.13
2019-02-14T13:27:38.676Z,102240.79
2019-02-14T13:30:10.071Z,102241.02
2019-02-14T13:32:39.091Z,102240.13
2019-02-14T13:35:08.064Z,102238.77
2019-02-14T13:37:37.079Z,102235.95
2019-02-14T13:40:06.141Z,102240.25
2019-02-14T13:42:35.200Z,102240.47
2019-02-14T13:45:04.222Z,102236.11
2019-02-14T13:47:33.347Z,102233.92
2019-02-14T13:50:02.506Z,102237.66
2019-02-14T13:52:31.489Z,102239.24
2019-02-14T13:55:00.481Z,102234.65
2019-02-14T13:57:29.493Z,102237.89
2019-02-14T13:59:58.513Z,102230.59
2019-02-14T14:02:27.522Z,102227.88
2019-02-14T14:04:56.543Z,102228.70
2019-02-14T14:07:25.515Z,102234.75
2019-02-14T14:09:54.483Z,102235.35
2019-02-14T14:12:23.470Z,102238.96
2019-02-14T14:14:52.448Z,102238.53
2019-02-14T14:17:21.438Z,102235.00
2019-02-14T14:19:50.398Z,102227.09
2019-02-14T14:22:19.371Z,102227.83
2019-02-14T14:24:48.388Z,102223.98
2019-02-14T14:27:17.364Z,102224.74
2019-02-14T14:29:46.315Z,102217.34
2019-02-14T14:32:15.289Z,102223.81
2019-02-14T14:34:44.259Z,102220.73
2019-02-14T14:37:13.340Z,102218.45
2019-02-14T14:39:47.808Z,102222.14
2019-02-14T14:42:31.965Z,102216.84
2019-02-14T14:45:00.938Z,102213.43
2019-02-14T14:47:29.897Z,102211.70
2019-02-14T14:49:58.876Z,102209.12
2019-02-14T14:52:27.926Z,102210.70
2019-02-14T14:54:56.919Z,102212.14
2019-02-14T14:57:25.893Z,102206.34
2019-02-14T14:59:54.915Z,102204.89
2019-02-14T15:02:23.861Z,102205.34
2019-02-14T15:04:52.845Z,102208.27
2019-02-14T15:07:21.802Z,102211.81
2019-02-14T15:09:57.209Z,102206.28
2019-02-14T15:12:21.491Z,102200.57
2019-02-14T15:14:50.499Z,102200.91
2019-02-14T15:17:19.454Z,102201.44
2019-02-14T15:19:48.784Z,102201.73
2019-02-14T15:22:17.791Z,102206.63
2019-02-14T15:24:46.764Z,102198.02
2019-02-14T15:27:15.736Z,102197.86
2019-02-14T15:29:44.776Z,102198.69
2019-02-14T15:32:13.827Z,102199.44
2019-02-14T15:34:44.772Z,102199.03
2019-02-14T15:37:15.461Z,102192.27
2019-02-14T15:39:44.440Z,102192.27
2019-02-14T15:42:13.590Z,102201.73
2019-02-14T15:44:42.583Z,102200.53
2019-02-14T15:47:11.748Z,102196.78
2019-02-14T15:49:40.806Z,102198.12
2019-02-14T15:52:09.816Z,102198.71
2019-02-14T15:54:38.830Z,102191.81
2019-02-14T15:57:07.898Z,102192.16
2019-02-14T15:59:36.947Z,102195.51
2019-02-14T16:02:08.307Z,102195.06
2019-02-14T16:04:36.881Z,102198.76
2019-02-14T16:07:05.883Z,102202.39
2019-02-14T16:09:36.545Z,102198.91
2019-02-14T16:12:06.057Z,102200.80
2019-02-14T16:14:35.031Z,102202.75
2019-02-14T16:17:04.536Z,102204.10
2019-02-14T16:19:34.562Z,102204.93
2019-02-14T16:22:04.209Z,102208.92
2019-02-14T16:24:33.158Z,102208.77
2019-02-14T16:27:03.348Z,102203.41
2019-02-14T16:29:32.779Z,102199.34
2019-02-14T16:32:01.766Z,102208.98
2019-02-14T16:34:30.764Z,102204.00
2019-02-14T16:37:00.609Z,102196.02
2019-02-14T16:39:29.683Z,102194.72
2019-02-14T16:41:58.650Z,102196.30
2019-02-14T16:44:27.623Z,102193.73
2019-02-14T16:46:56.644Z,102202.27
2019-02-14T16:49:25.629Z,102200.77
2019-02-14T16:51:54.707Z,102201.53
2019-02-14T16:54:23.659Z,102200.61
2019-02-14T16:56:52.886Z,102199.64
2019-02-14T16:59:21.835Z,102203.11
2019-02-14T17:01:50.975Z,102208.84
2019-02-14T17:04:19.994Z,102210.96
2019-02-14T17:06:49.058Z,102211.63
2019-02-14T17:09:18.405Z,102221.80
2019-02-14T17:11:47.400Z,102223.09
2019-02-14T17:14:16.840Z,102221.44
2019-02-14T17:16:45.871Z,102217.67
2019-02-14T17:19:14.985Z,102220.32
2019-02-14T17:21:44.069Z,102221.52
2019-02-14T17:24:13.116Z,102221.05
2019-02-14T17:26:42.072Z,102231.03
2019-02-14T17:29:11.221Z,102235.88
2019-02-14T17:31:40.365Z,102236.56
2019-02-14T17:34:09.613Z,102238.64
2019-02-14T17:36:38.738Z,102235.72
2019-02-14T17:39:07.775Z,102232.06
2019-02-14T17:41:37.082Z,102233.25
2019-02-14T17:44:06.284Z,102241.54
2019-02-14T17:46:35.480Z,102244.38
2019-02-14T17:49:04.729Z,102240.63
2019-02-14T17:51:33.910Z,102239.03
2019-02-14T17:54:03.408Z,102235.81
2019-02-14T17:56:32.843Z,102233.14
2019-02-14T17:59:02.786Z,102229.64
2019-02-14T18:01:31.770Z,102239.45
2019-02-14T18:04:01.178Z,102232.65
2019-02-14T18:06:30.254Z,102241.88
2019-02-14T18:08:59.555Z,102244.30
2019-02-14T18:11:28.975Z,102239.27
2019-02-14T18:13:58.342Z,102244.13
2019-02-14T18:16:27.533Z,102247.22
2019-02-14T18:18:56.605Z,102252.36
2019-02-14T18:21:25.885Z,102245.03
2019-02-14T18:23:55.347Z,102248.20
2019-02-14T18:26:24.681Z,102243.77
2019-02-14T18:28:53.907Z,102241.64
2019-02-14T18:31:23.086Z,102241.40
2019-02-14T18:33:52.421Z,102239.79
2019-02-14T18:36:21.773Z,102240.80
2019-02-14T18:38:51.239Z,102239.31
2019-02-14T18:41:20.717Z,102246.20
2019-02-14T18:43:50.062Z,102242.73
2019-02-14T18:46:20.151Z,102246.85
2019-02-14T18:48:50.002Z,102244.42
2019-02-14T18:51:19.517Z,102247.39
2019-02-14T18:53:48.902Z,102244.63
2019-02-14T18:56:18.082Z,102242.98
2019-02-14T18:58:47.538Z,102245.45
2019-02-14T19:01:17.030Z,102246.45
2019-02-14T19:03:46.310Z,102251.85
2019-02-14T19:06:15.563Z,102244.97
2019-02-14T19:08:48.657Z,102249.30
2019-02-14T19:11:17.038Z,102243.81
2019-02-14T19:13:46.775Z,102247.94
2019-02-14T19:16:16.555Z,102240.43
2019-02-14T19:18:46.290Z,102241.50
2019-02-14T19:21:16.422Z,102244.47
2019-02-14T19:23:45.952Z,102242.50
2019-02-14T19:26:15.384Z,102242.45
2019-02-14T19:28:44.731Z,102243.23
2019-02-14T19:31:14.304Z,102240.20
2019-02-14T19:33:43.509Z,102235.83
2019-02-14T19:36:15.177Z,102239.86
2019-02-14T19:38:44.371Z,102243.87
2019-02-14T19:41:14.209Z,102234.84
2019-02-14T19:43:44.393Z,102235.09
2019-02-14T19:46:14.094Z,102236.08
2019-02-14T19:48:44.286Z,102235.42
2019-02-14T19:51:16.331Z,102236.62
2019-02-14T19:53:46.556Z,102232.20
2019-02-14T19:56:16.292Z,102227.17
2019-02-14T19:58:45.646Z,102226.75
2019-02-14T20:01:14.959Z,102226.17
2019-02-14T20:03:44.165Z,102222.02
2019-02-14T20:06:13.469Z,102221.77
2019-02-14T20:08:42.497Z,102218.31
2019-02-14T20:11:12.146Z,102226.80
2019-02-14T20:13:49.323Z,102220.42
2019-02-14T20:16:12.731Z,102224.62
2019-02-14T20:18:42.856Z,102217.16
2019-02-14T20:21:12.960Z,102215.84
2019-02-14T20:23:43.519Z,102208.09
2019-02-14T20:26:13.293Z,102216.66
2019-02-14T20:28:42.776Z,102218.67
2019-02-14T20:31:12.326Z,102215.17
2019-02-14T20:33:42.431Z,102215.49
2019-02-14T20:36:11.775Z,102220.73
2019-02-14T20:38:40.893Z,102215.00
2019-02-14T20:41:10.629Z,102211.70
2019-02-14T20:43:39.917Z,102214.34
2019-02-14T20:46:09.544Z,102214.05
2019-02-14T20:48:39.303Z,102215.38
2019-02-14T20:51:09.645Z,102210.69
2019-02-14T20:53:38.803Z,102221.89
2019-02-14T20:56:08.471Z,102220.74
2019-02-14T20:58:37.653Z,102218.80
2019-02-14T21:01:10.267Z,102226.67
2019-02-14T21:03:39.858Z,102224.73
2019-02-14T21:06:09.214Z,102222.02
2019-02-14T21:08:38.519Z,102222.77
2019-02-14T21:11:08.048Z,102227.34
2019-02-14T21:13:37.168Z,102225.16
2019-02-14T21:16:06.692Z,102224.01
2019-02-14T21:18:36.875Z,102228.33
2019-02-14T21:21:06.701Z,102229.81
2019-02-14T21:23:36.314Z,102227.59
2019-02-14T21:26:05.725Z,102225.98
2019-02-14T21:28:35.097Z,102230.89
2019-02-14T21:31:04.659Z,102229.23
2019-02-14T21:33:34.222Z,102222.97
2019-02-14T21:36:03.361Z,102228.66
2019-02-14T21:38:32.569Z,102224.74
2019-02-14T21:41:01.644Z,102219.47
2019-02-14T21:43:31.045Z,102216.66
2019-02-14T21:46:00.171Z,102211.97
2019-02-14T21:48:29.315Z,102217.11
2019-02-14T21:50:58.386Z,102227.17
2019-02-14T21:53:27.506Z,102224.08
2019-02-14T21:55:56.835Z,102227.28
2019-02-14T21:58:25.851Z,102226.70
2019-02-14T22:00:54.922Z,102220.03
2019-02-14T22:03:23.895Z,102224.59
2019-02-14T22:05:52.910Z,102228.59
2019-02-14T22:08:21.907Z,102228.84
2019-02-14T22:10:50.880Z,102224.92
2019-02-14T22:13:19.994Z,102228.66
2019-02-14T22:15:49.003Z,102222.84
2019-02-14T22:18:17.975Z,102223.78
2019-02-14T22:20:46.904Z,102222.66
2019-02-14T22:23:15.863Z,102218.74
2019-02-14T22:25:44.854Z,102224.42
2019-02-14T22:28:13.816Z,102221.85
2019-02-14T22:30:42.783Z,102224.81
2019-02-14T22:33:11.751Z,102218.74
2019-02-14T22:35:40.742Z,102219.72
2019-02-14T22:38:09.693Z,102223.74
2019-02-14T22:40:38.642Z,102218.23
2019-02-14T22:43:07.617Z,102220.59
2019-02-14T22:45:36.565Z,102227.59
2019-02-14T22:48:05.559Z,102226.42
2019-02-14T22:50:34.499Z,102227.16
2019-02-14T22:53:03.545Z,102229.87
2019-02-14T22:55:32.513Z,102227.09
2019-02-14T22:58:01.905Z,102226.80
2019-02-14T23:00:39.402Z,102230.34
2019-02-14T23:03:08.415Z,102229.52
2019-02-14T23:05:37.562Z,102232.15
2019-02-14T23:08:06.532Z,102233.45
2019-02-14T23:10:35.498Z,102232.57
2019-02-14T23:13:04.552Z,102236.02
2019-02-14T23:15:33.418Z,102232.83
2019-02-14T23:18:02.348Z,102226.52
2019-02-14T23:20:31.081Z,102230.20
2019-02-14T23:22:59.911Z,102233.92
2019-02-14T23:25:28.726Z,102238.73
2019-02-14T23:27:57.721Z,102234.84
2019-02-14T23:30:26.549Z,102242.39
2019-02-14T23:32:55.429Z,102241.47
2019-02-14T23:35:24.396Z,102242.97
2019-02-14T23:37:53.384Z,102240.96
2019-02-14T23:40:22.348Z,102238.69
2019-02-14T23:42:51.251Z,102230.48
2019-02-14T23:45:20.196Z,102231.25
2019-02-14T23:47:49.075Z,102224.61
2019-02-14T23:50:18.068Z,102227.75
2019-02-14T23:52:46.972Z,102231.23
2019-02-14T23:55:15.838Z,102227.93
2019-02-14T23:57:44.766Z,102224.59
